TimeCST,TemperatureF,Dew PointF,Humidity,Sea Level PressureIn,VisibilityMPH,Wind Direction,Wind SpeedMPH,Gust SpeedMPH,PrecipitationIn,Events,Conditions,WindDirDegrees,DateUTC
12:53 AM,34.0,21.9,61,30.16,10.0,SW,6.9,-,N/A,,Clear,230,2012-11-07 06:53:00
1:53 AM,35.1,21.9,59,30.15,10.0,SW,6.9,-,N/A,,Clear,230,2012-11-07 07:53:00
2:53 AM,37.0,23.0,57,30.15,10.0,SSW,6.9,-,N/A,,Clear,210,2012-11-07 08:53:00
3:53 AM,33.1,21.9,64,30.14,10.0,SSW,3.5,-,N/A,,Clear,200,2012-11-07 09:53:00
4:53 AM,32.0,23.0,69,30.14,10.0,South,5.8,-,N/A,,Clear,170,2012-11-07 10:53:00
5:53 AM,30.9,23.0,72,30.13,10.0,South,6.9,-,N/A,,Clear,180,2012-11-07 11:53:00
6:53 AM,32.0,23.0,69,30.12,10.0,South,9.2,-,N/A,,Clear,170,2012-11-07 12:53:00
7:53 AM,33.1,25.0,72,30.12,10.0,South,4.6,-,N/A,,Clear,170,2012-11-07 13:53:00
8:53 AM,39.9,26.1,58,30.10,10.0,South,10.4,-,N/A,,Clear,170,2012-11-07 14:53:00
9:53 AM,46.9,26.1,44,30.08,10.0,South,13.8,-,N/A,,Clear,180,2012-11-07 15:53:00
10:53 AM,55.0,24.1,30,30.03,10.0,South,19.6,28.8,N/A,,Clear,180,2012-11-07 16:53:00
11:53 AM,59.0,25.0,27,29.97,10.0,South,24.2,29.9,N/A,,Clear,190,2012-11-07 17:53:00
12:53 PM,63.0,27.0,26,29.93,10.0,South,19.6,-,N/A,,Clear,180,2012-11-07 18:53:00
1:53 PM,66.0,28.0,24,29.88,10.0,South,23.0,29.9,N/A,,Clear,180,2012-11-07 19:53:00
2:53 PM,66.0,28.0,24,29.85,10.0,South,19.6,27.6,N/A,,Clear,170,2012-11-07 20:53:00
3:53 PM,64.9,28.0,25,29.83,10.0,South,20.7,29.9,N/A,,Clear,170,2012-11-07 21:53:00
4:53 PM,62.1,28.0,28,29.82,10.0,South,18.4,-,N/A,,Clear,180,2012-11-07 22:53:00
5:53 PM,59.0,28.9,32,29.81,10.0,South,18.4,-,N/A,,Clear,180,2012-11-07 23:53:00
6:53 PM,55.9,28.0,34,29.81,10.0,South,18.4,-,N/A,,Clear,170,2012-11-08 00:53:00
7:53 PM,55.9,28.0,34,29.80,10.0,South,25.3,32.2,N/A,,Clear,180,2012-11-08 01:53:00
8:53 PM,53.1,28.0,38,29.79,10.0,South,21.9,-,N/A,,Clear,180,2012-11-08 02:53:00
9:53 PM,54.0,28.0,37,29.77,10.0,South,25.3,32.2,N/A,,Clear,190,2012-11-08 03:53:00
10:53 PM,53.1,28.0,38,29.74,10.0,SSW,24.2,33.4,N/A,,Clear,200,2012-11-08 04:53:00
11:53 PM,51.1,28.9,43,29.73,10.0,SSW,24.2,31.1,N/A,,Clear,200,2012-11-08 05:53:00